Terminal Aerodrome Forecast
Issued by NWS

Home | Current Version | Previous Version | Text Only | Print | Product List | Glossary Off
Versions: 1 2 3 4 5 6 7 8 9 10 11 12 13 14 15 16 17

000
FTUS43 KGRB 191100
TAFRHI
TAF
KRHI 191138Z 1912/2012 13010KT P6SM SCT070 BKN120 WS010/15035KT
     FM191500 15014G22KT P6SM SCT035 BKN120
     FM200000 17009KT P6SM BKN035 OVC070 WS011/18040KT
      TEMPO 2000/2003 -RA
     FM200300 20008KT 6SM -RA BR BKN020 OVC050 WS011/20040KT
      TEMPO 2006/2010 2SM -RA BR OVC012
     FM201000 22004KT 2SM BR BKN008 OVC012=

USA.gov is the U.S. government's official web portal to all federal, state and local government web resources and services.